<?xml version="1.0" encoding="UTF-8" standalone="no" ?>
<gpx xmlns="http://www.topografix.com/GPX/1/1" xmlns:xsi="http://www.w3.org/2001/XMLSchema-instance" xsi:schemaLocation="http://www.topografix.com/GPX/1/1 http://www.topografix.com/GPX/1/1/gpx.xsd" version="1.1" creator="VisuGPX - https://www.visugpx.com">
  <metadata>
    <name>windsurf la nautique narbonne</name>
    <desc><![CDATA[windsurf la nautique narbonne]]></desc>
  </metadata>
  <trk>
    <name><![CDATA[ACTIVE LOG161240]]></name>
    <trkseg>
      <trkpt lat="43.13642" lon="2.9984">
        <ele>6.057</ele>
        <time>2011-09-14T14:12:40Z</time>
      </trkpt>
      <trkpt lat="43.13647" lon="2.99844">
        <ele>3.461</ele>
        <time>2011-09-14T14:12:42Z</time>
      </trkpt>
      <trkpt lat="43.13657" lon="2.99848">
        <ele>-1.197</ele>
        <time>2011-09-14T14:12:46Z</time>
      </trkpt>
      <trkpt lat="43.1367" lon="2.9985">
        <ele>-6.164</ele>
        <time>2011-09-14T14:12:51Z</time>
      </trkpt>
      <trkpt lat="43.13678" lon="2.99853">
        <ele>-10.388</ele>
        <time>2011-09-14T14:12:55Z</time>
      </trkpt>
      <trkpt lat="43.13687" lon="2.9986">
        <ele>-15.952</ele>
        <time>2011-09-14T14:13:00Z</time>
      </trkpt>
      <trkpt lat="43.13709" lon="2.99871">
        <ele>-20.031</ele>
        <time>2011-09-14T14:13:12Z</time>
      </trkpt>
      <trkpt lat="43.13736" lon="2.99885">
        <ele>-25.048</ele>
        <time>2011-09-14T14:13:25Z</time>
      </trkpt>
      <trkpt lat="43.13739" lon="2.99888">
        <ele>-25.039</ele>
        <time>2011-09-14T14:13:26Z</time>
      </trkpt>
      <trkpt lat="43.13751" lon="2.99901">
        <ele>-26.269</ele>
        <time>2011-09-14T14:13:29Z</time>
      </trkpt>
      <trkpt lat="43.13784" lon="2.99918">
        <ele>-23.322</ele>
        <time>2011-09-14T14:13:34Z</time>
      </trkpt>
      <trkpt lat="43.13816" lon="2.99917">
        <ele>-21.853</ele>
        <time>2011-09-14T14:13:38Z</time>
      </trkpt>
      <trkpt lat="43.1392" lon="2.99936">
        <ele>-22.991</ele>
        <time>2011-09-14T14:13:49Z</time>
      </trkpt>
      <trkpt lat="43.13946" lon="2.99948">
        <ele>-23.113</ele>
        <time>2011-09-14T14:13:52Z</time>
      </trkpt>
      <trkpt lat="43.14019" lon="2.99963">
        <ele>-13.93</ele>
        <time>2011-09-14T14:14:00Z</time>
      </trkpt>
      <trkpt lat="43.14133" lon="3.00028">
        <ele>-14.677</ele>
        <time>2011-09-14T14:14:13Z</time>
      </trkpt>
      <trkpt lat="43.14141" lon="3.00034">
        <ele>-14.919</ele>
        <time>2011-09-14T14:14:14Z</time>
      </trkpt>
      <trkpt lat="43.14216" lon="3.00067">
        <ele>-13.004</ele>
        <time>2011-09-14T14:14:22Z</time>
      </trkpt>
      <trkpt lat="43.14242" lon="3.0007">
        <ele>-15.288</ele>
        <time>2011-09-14T14:14:25Z</time>
      </trkpt>
      <trkpt lat="43.14321" lon="3.00096">
        <ele>-13.046</ele>
        <time>2011-09-14T14:14:32Z</time>
      </trkpt>
      <trkpt lat="43.14274" lon="3.0009">
        <ele>-13.569</ele>
        <time>2011-09-14T14:14:45Z</time>
      </trkpt>
      <trkpt lat="43.1428" lon="3.0009">
        <ele>-14.988</ele>
        <time>2011-09-14T14:15:09Z</time>
      </trkpt>
      <trkpt lat="43.14289" lon="3.00089">
        <ele>-16.079</ele>
        <time>2011-09-14T14:15:31Z</time>
      </trkpt>
      <trkpt lat="43.1429" lon="3.00076">
        <ele>-16.409</ele>
        <time>2011-09-14T14:15:50Z</time>
      </trkpt>
      <trkpt lat="43.14284" lon="3.0007">
        <ele>-16.615</ele>
        <time>2011-09-14T14:16:10Z</time>
      </trkpt>
      <trkpt lat="43.1428" lon="3.00063">
        <ele>-16.412</ele>
        <time>2011-09-14T14:17:47Z</time>
      </trkpt>
      <trkpt lat="43.14294" lon="3.0006">
        <ele>-13.472</ele>
        <time>2011-09-14T14:30:29Z</time>
      </trkpt>
      <trkpt lat="43.14297" lon="3.00063">
        <ele>-11.466</ele>
        <time>2011-09-14T14:30:54Z</time>
      </trkpt>
      <trkpt lat="43.14298" lon="3.00063">
        <ele>-11.793</ele>
        <time>2011-09-14T14:31:15Z</time>
      </trkpt>
      <trkpt lat="43.14299" lon="3.00062">
        <ele>-12.875</ele>
        <time>2011-09-14T14:31:46Z</time>
      </trkpt>
      <trkpt lat="43.14299" lon="3.00063">
        <ele>-12.422</ele>
        <time>2011-09-14T14:32:12Z</time>
      </trkpt>
      <trkpt lat="43.14299" lon="3.0006">
        <ele>-12.433</ele>
        <time>2011-09-14T14:32:50Z</time>
      </trkpt>
      <trkpt lat="43.14296" lon="3.00072">
        <ele>-10.61</ele>
        <time>2011-09-14T14:33:14Z</time>
      </trkpt>
      <trkpt lat="43.14295" lon="3.00076">
        <ele>-10.085</ele>
        <time>2011-09-14T14:33:17Z</time>
      </trkpt>
      <trkpt lat="43.14294" lon="3.00084">
        <ele>-9.366</ele>
        <time>2011-09-14T14:33:24Z</time>
      </trkpt>
      <trkpt lat="43.14284" lon="3.00088">
        <ele>-9.558</ele>
        <time>2011-09-14T14:33:44Z</time>
      </trkpt>
      <trkpt lat="43.14281" lon="3.00091">
        <ele>-8.508</ele>
        <time>2011-09-14T14:33:58Z</time>
      </trkpt>
      <trkpt lat="43.14276" lon="3.00097">
        <ele>-8.85</ele>
        <time>2011-09-14T14:34:16Z</time>
      </trkpt>
      <trkpt lat="43.14272" lon="3.00096">
        <ele>-8.336</ele>
        <time>2011-09-14T14:34:31Z</time>
      </trkpt>
      <trkpt lat="43.14264" lon="3.00093">
        <ele>-8.441</ele>
        <time>2011-09-14T14:34:44Z</time>
      </trkpt>
      <trkpt lat="43.14237" lon="3.00075">
        <ele>-7.646</ele>
        <time>2011-09-14T14:35:01Z</time>
      </trkpt>
      <trkpt lat="43.14204" lon="3.00063">
        <ele>-6.879</ele>
        <time>2011-09-14T14:35:16Z</time>
      </trkpt>
      <trkpt lat="43.1417" lon="3.00055">
        <ele>-6.18</ele>
        <time>2011-09-14T14:35:30Z</time>
      </trkpt>
      <trkpt lat="43.14133" lon="3.00057">
        <ele>-5.478</ele>
        <time>2011-09-14T14:35:40Z</time>
      </trkpt>
      <trkpt lat="43.14129" lon="3.00057">
        <ele>-5.33</ele>
        <time>2011-09-14T14:35:41Z</time>
      </trkpt>
      <trkpt lat="43.14119" lon="3.00057">
        <ele>-5.172</ele>
        <time>2011-09-14T14:35:43Z</time>
      </trkpt>
      <trkpt lat="43.14099" lon="3.00051">
        <ele>-5.018</ele>
        <time>2011-09-14T14:35:46Z</time>
      </trkpt>
      <trkpt lat="43.13984" lon="2.99995">
        <ele>-5.951</ele>
        <time>2011-09-14T14:35:59Z</time>
      </trkpt>
      <trkpt lat="43.13928" lon="2.99962">
        <ele>-5.558</ele>
        <time>2011-09-14T14:36:05Z</time>
      </trkpt>
      <trkpt lat="43.13816" lon="2.99839">
        <ele>-3.659</ele>
        <time>2011-09-14T14:36:19Z</time>
      </trkpt>
      <trkpt lat="43.13793" lon="2.99812">
        <ele>-4.318</ele>
        <time>2011-09-14T14:36:22Z</time>
      </trkpt>
      <trkpt lat="43.13744" lon="2.9974">
        <ele>-4.263</ele>
        <time>2011-09-14T14:36:29Z</time>
      </trkpt>
      <trkpt lat="43.13625" lon="2.99636">
        <ele>-2.708</ele>
        <time>2011-09-14T14:36:43Z</time>
      </trkpt>
      <trkpt lat="43.13521" lon="2.99547">
        <ele>-3.608</ele>
        <time>2011-09-14T14:36:54Z</time>
      </trkpt>
      <trkpt lat="43.13473" lon="2.99552">
        <ele>-5.068</ele>
        <time>2011-09-14T14:37:00Z</time>
      </trkpt>
      <trkpt lat="43.13476" lon="2.99564">
        <ele>-5.787</ele>
        <time>2011-09-14T14:37:02Z</time>
      </trkpt>
      <trkpt lat="43.13482" lon="2.99575">
        <ele>-5.42</ele>
        <time>2011-09-14T14:37:04Z</time>
      </trkpt>
      <trkpt lat="43.13501" lon="2.99603">
        <ele>-5.93</ele>
        <time>2011-09-14T14:37:08Z</time>
      </trkpt>
      <trkpt lat="43.13607" lon="2.99672">
        <ele>-6.354</ele>
        <time>2011-09-14T14:37:20Z</time>
      </trkpt>
      <trkpt lat="43.13757" lon="2.99755">
        <ele>-5.047</ele>
        <time>2011-09-14T14:37:34Z</time>
      </trkpt>
      <trkpt lat="43.13884" lon="2.99823">
        <ele>-3.202</ele>
        <time>2011-09-14T14:37:47Z</time>
      </trkpt>
      <trkpt lat="43.14017" lon="2.99899">
        <ele>-2.433</ele>
        <time>2011-09-14T14:38:03Z</time>
      </trkpt>
      <trkpt lat="43.14024" lon="2.99904">
        <ele>-2.468</ele>
        <time>2011-09-14T14:38:04Z</time>
      </trkpt>
      <trkpt lat="43.14134" lon="2.9998">
        <ele>-2.643</ele>
        <time>2011-09-14T14:38:18Z</time>
      </trkpt>
      <trkpt lat="43.14203" lon="3.00018">
        <ele>-2.411</ele>
        <time>2011-09-14T14:38:26Z</time>
      </trkpt>
      <trkpt lat="43.14227" lon="3.00011">
        <ele>-2.279</ele>
        <time>2011-09-14T14:38:32Z</time>
      </trkpt>
      <trkpt lat="43.14226" lon="3.0001">
        <ele>-2.367</ele>
        <time>2011-09-14T14:38:34Z</time>
      </trkpt>
      <trkpt lat="43.14193" lon="3.00003">
        <ele>-3.181</ele>
        <time>2011-09-14T14:38:47Z</time>
      </trkpt>
      <trkpt lat="43.14168" lon="3.00004">
        <ele>-3.855</ele>
        <time>2011-09-14T14:38:55Z</time>
      </trkpt>
      <trkpt lat="43.14122" lon="3.00003">
        <ele>-4.877</ele>
        <time>2011-09-14T14:39:09Z</time>
      </trkpt>
      <trkpt lat="43.14119" lon="3.00003">
        <ele>-5.054</ele>
        <time>2011-09-14T14:39:10Z</time>
      </trkpt>
      <trkpt lat="43.14102" lon="3.00001">
        <ele>-5.053</ele>
        <time>2011-09-14T14:39:13Z</time>
      </trkpt>
      <trkpt lat="43.14054" lon="2.99983">
        <ele>-5.47</ele>
        <time>2011-09-14T14:39:19Z</time>
      </trkpt>
      <trkpt lat="43.13969" lon="2.9994">
        <ele>-3.697</ele>
        <time>2011-09-14T14:39:28Z</time>
      </trkpt>
      <trkpt lat="43.13822" lon="2.99895">
        <ele>-3.18</ele>
        <time>2011-09-14T14:39:43Z</time>
      </trkpt>
      <trkpt lat="43.13674" lon="2.99825">
        <ele>-1.457</ele>
        <time>2011-09-14T14:39:57Z</time>
      </trkpt>
      <trkpt lat="43.13664" lon="2.99821">
        <ele>-2.096</ele>
        <time>2011-09-14T14:39:58Z</time>
      </trkpt>
      <trkpt lat="43.13635" lon="2.99806">
        <ele>-2.337</ele>
        <time>2011-09-14T14:40:01Z</time>
      </trkpt>
      <trkpt lat="43.13523" lon="2.9978">
        <ele>-2.159</ele>
        <time>2011-09-14T14:40:14Z</time>
      </trkpt>
      <trkpt lat="43.13485" lon="2.99768">
        <ele>-2.329</ele>
        <time>2011-09-14T14:40:18Z</time>
      </trkpt>
      <trkpt lat="43.13422" lon="2.99721">
        <ele>-1.86</ele>
        <time>2011-09-14T14:40:25Z</time>
      </trkpt>
      <trkpt lat="43.13407" lon="2.99703">
        <ele>-1.242</ele>
        <time>2011-09-14T14:40:27Z</time>
      </trkpt>
      <trkpt lat="43.13291" lon="2.99595">
        <ele>-0.769</ele>
        <time>2011-09-14T14:40:41Z</time>
      </trkpt>
      <trkpt lat="43.13249" lon="2.99561">
        <ele>0.171</ele>
        <time>2011-09-14T14:40:46Z</time>
      </trkpt>
      <trkpt lat="43.13201" lon="2.99563">
        <ele>-0.122</ele>
        <time>2011-09-14T14:40:52Z</time>
      </trkpt>
      <trkpt lat="43.13204" lon="2.99576">
        <ele>-0.901</ele>
        <time>2011-09-14T14:40:54Z</time>
      </trkpt>
      <trkpt lat="43.13221" lon="2.99601">
        <ele>-1.804</ele>
        <time>2011-09-14T14:40:58Z</time>
      </trkpt>
      <trkpt lat="43.13274" lon="2.9964">
        <ele>-1.849</ele>
        <time>2011-09-14T14:41:05Z</time>
      </trkpt>
      <trkpt lat="43.13328" lon="2.9966">
        <ele>-1.694</ele>
        <time>2011-09-14T14:41:11Z</time>
      </trkpt>
      <trkpt lat="43.13356" lon="2.99665">
        <ele>-2.008</ele>
        <time>2011-09-14T14:41:14Z</time>
      </trkpt>
      <trkpt lat="43.13487" lon="2.99684">
        <ele>-2.313</ele>
        <time>2011-09-14T14:41:28Z</time>
      </trkpt>
      <trkpt lat="43.13643" lon="2.99671">
        <ele>-2.463</ele>
        <time>2011-09-14T14:41:44Z</time>
      </trkpt>
      <trkpt lat="43.13795" lon="2.99665">
        <ele>-4.193</ele>
        <time>2011-09-14T14:42:00Z</time>
      </trkpt>
      <trkpt lat="43.13877" lon="2.99679">
        <ele>-4.43</ele>
        <time>2011-09-14T14:42:08Z</time>
      </trkpt>
      <trkpt lat="43.14009" lon="2.99752">
        <ele>-3.832</ele>
        <time>2011-09-14T14:42:23Z</time>
      </trkpt>
      <trkpt lat="43.14097" lon="2.99808">
        <ele>-3.119</ele>
        <time>2011-09-14T14:42:35Z</time>
      </trkpt>
      <trkpt lat="43.14204" lon="2.99911">
        <ele>-2.145</ele>
        <time>2011-09-14T14:42:51Z</time>
      </trkpt>
      <trkpt lat="43.14216" lon="2.9993">
        <ele>-1.919</ele>
        <time>2011-09-14T14:42:53Z</time>
      </trkpt>
      <trkpt lat="43.14231" lon="2.99966">
        <ele>-1.763</ele>
        <time>2011-09-14T14:42:56Z</time>
      </trkpt>
      <trkpt lat="43.14229" lon="3.00008">
        <ele>-2.772</ele>
        <time>2011-09-14T14:43:01Z</time>
      </trkpt>
      <trkpt lat="43.14223" lon="3.00008">
        <ele>-2.506</ele>
        <time>2011-09-14T14:43:04Z</time>
      </trkpt>
      <trkpt lat="43.14218" lon="3.00006">
        <ele>-3.069</ele>
        <time>2011-09-14T14:43:06Z</time>
      </trkpt>
      <trkpt lat="43.1419" lon="2.99996">
        <ele>-3.568</ele>
        <time>2011-09-14T14:43:11Z</time>
      </trkpt>
      <trkpt lat="43.14164" lon="2.99984">
        <ele>-3.637</ele>
        <time>2011-09-14T14:43:14Z</time>
      </trkpt>
      <trkpt lat="43.14055" lon="2.99973">
        <ele>-3.019</ele>
        <time>2011-09-14T14:43:27Z</time>
      </trkpt>
      <trkpt lat="43.13927" lon="2.99949">
        <ele>-3.686</ele>
        <time>2011-09-14T14:43:42Z</time>
      </trkpt>
      <trkpt lat="43.13816" lon="2.99922">
        <ele>-3.767</ele>
        <time>2011-09-14T14:43:55Z</time>
      </trkpt>
      <trkpt lat="43.13702" lon="2.99891">
        <ele>-3.681</ele>
        <time>2011-09-14T14:44:09Z</time>
      </trkpt>
      <trkpt lat="43.13597" lon="2.9987">
        <ele>-4.074</ele>
        <time>2011-09-14T14:44:23Z</time>
      </trkpt>
      <trkpt lat="43.13531" lon="2.99855">
        <ele>-2.405</ele>
        <time>2011-09-14T14:44:32Z</time>
      </trkpt>
      <trkpt lat="43.13461" lon="2.99861">
        <ele>-1.94</ele>
        <time>2011-09-14T14:44:43Z</time>
      </trkpt>
      <trkpt lat="43.13416" lon="2.99859">
        <ele>-3.153</ele>
        <time>2011-09-14T14:44:48Z</time>
      </trkpt>
      <trkpt lat="43.13288" lon="2.99831">
        <ele>-2.756</ele>
        <time>2011-09-14T14:45:01Z</time>
      </trkpt>
      <trkpt lat="43.13143" lon="2.99789">
        <ele>-2.302</ele>
        <time>2011-09-14T14:45:15Z</time>
      </trkpt>
      <trkpt lat="43.13091" lon="2.99773">
        <ele>-2.584</ele>
        <time>2011-09-14T14:45:20Z</time>
      </trkpt>
      <trkpt lat="43.13011" lon="2.99734">
        <ele>-1.834</ele>
        <time>2011-09-14T14:45:28Z</time>
      </trkpt>
      <trkpt lat="43.12977" lon="2.99708">
        <ele>-1.841</ele>
        <time>2011-09-14T14:45:32Z</time>
      </trkpt>
      <trkpt lat="43.12939" lon="2.99734">
        <ele>-1.103</ele>
        <time>2011-09-14T14:45:38Z</time>
      </trkpt>
      <trkpt lat="43.12942" lon="2.99738">
        <ele>-1.449</ele>
        <time>2011-09-14T14:45:39Z</time>
      </trkpt>
      <trkpt lat="43.12965" lon="2.99768">
        <ele>-2.447</ele>
        <time>2011-09-14T14:45:45Z</time>
      </trkpt>
      <trkpt lat="43.13044" lon="2.99828">
        <ele>-1.391</ele>
        <time>2011-09-14T14:45:57Z</time>
      </trkpt>
      <trkpt lat="43.13172" lon="2.99855">
        <ele>-1.599</ele>
        <time>2011-09-14T14:46:11Z</time>
      </trkpt>
      <trkpt lat="43.13278" lon="2.99865">
        <ele>-2.377</ele>
        <time>2011-09-14T14:46:22Z</time>
      </trkpt>
      <trkpt lat="43.13402" lon="2.99869">
        <ele>-3.067</ele>
        <time>2011-09-14T14:46:35Z</time>
      </trkpt>
      <trkpt lat="43.13554" lon="2.99854">
        <ele>-4.444</ele>
        <time>2011-09-14T14:46:51Z</time>
      </trkpt>
      <trkpt lat="43.13676" lon="2.99827">
        <ele>-4.41</ele>
        <time>2011-09-14T14:47:04Z</time>
      </trkpt>
      <trkpt lat="43.13685" lon="2.99826">
        <ele>-4.493</ele>
        <time>2011-09-14T14:47:05Z</time>
      </trkpt>
      <trkpt lat="43.13772" lon="2.9985">
        <ele>-4.746</ele>
        <time>2011-09-14T14:47:15Z</time>
      </trkpt>
      <trkpt lat="43.13944" lon="2.99878">
        <ele>-5.179</ele>
        <time>2011-09-14T14:47:32Z</time>
      </trkpt>
      <trkpt lat="43.1408" lon="2.99878">
        <ele>-6.063</ele>
        <time>2011-09-14T14:47:46Z</time>
      </trkpt>
      <trkpt lat="43.14123" lon="2.99883">
        <ele>-5.812</ele>
        <time>2011-09-14T14:47:51Z</time>
      </trkpt>
      <trkpt lat="43.14176" lon="2.99916">
        <ele>-4.654</ele>
        <time>2011-09-14T14:47:58Z</time>
      </trkpt>
      <trkpt lat="43.14236" lon="2.99933">
        <ele>-4.161</ele>
        <time>2011-09-14T14:48:05Z</time>
      </trkpt>
      <trkpt lat="43.14241" lon="2.99928">
        <ele>-4.244</ele>
        <time>2011-09-14T14:48:13Z</time>
      </trkpt>
      <trkpt lat="43.14206" lon="2.99924">
        <ele>-2.514</ele>
        <time>2011-09-14T14:48:26Z</time>
      </trkpt>
      <trkpt lat="43.14177" lon="2.99926">
        <ele>-0.963</ele>
        <time>2011-09-14T14:48:38Z</time>
      </trkpt>
      <trkpt lat="43.14148" lon="2.99935">
        <ele>0.151</ele>
        <time>2011-09-14T14:48:48Z</time>
      </trkpt>
      <trkpt lat="43.14137" lon="2.99935">
        <ele>-0.394</ele>
        <time>2011-09-14T14:48:53Z</time>
      </trkpt>
      <trkpt lat="43.1412" lon="2.99942">
        <ele>-0.373</ele>
        <time>2011-09-14T14:48:57Z</time>
      </trkpt>
      <trkpt lat="43.14053" lon="2.99949">
        <ele>-1.14</ele>
        <time>2011-09-14T14:49:08Z</time>
      </trkpt>
      <trkpt lat="43.13949" lon="2.99927">
        <ele>-2.348</ele>
        <time>2011-09-14T14:49:20Z</time>
      </trkpt>
      <trkpt lat="43.13837" lon="2.99912">
        <ele>-2.2</ele>
        <time>2011-09-14T14:49:33Z</time>
      </trkpt>
      <trkpt lat="43.1377" lon="2.99911">
        <ele>-1.981</ele>
        <time>2011-09-14T14:49:42Z</time>
      </trkpt>
      <trkpt lat="43.13747" lon="2.99901">
        <ele>-1.975</ele>
        <time>2011-09-14T14:49:50Z</time>
      </trkpt>
      <trkpt lat="43.13718" lon="2.99897">
        <ele>-1.613</ele>
        <time>2011-09-14T14:50:06Z</time>
      </trkpt>
      <trkpt lat="43.1367" lon="2.9991">
        <ele>-0.979</ele>
        <time>2011-09-14T14:50:17Z</time>
      </trkpt>
      <trkpt lat="43.13662" lon="2.9991">
        <ele>-0.809</ele>
        <time>2011-09-14T14:50:18Z</time>
      </trkpt>
      <trkpt lat="43.13524" lon="2.99891">
        <ele>-0.951</ele>
        <time>2011-09-14T14:50:31Z</time>
      </trkpt>
      <trkpt lat="43.13448" lon="2.9986">
        <ele>0.373</ele>
        <time>2011-09-14T14:50:38Z</time>
      </trkpt>
      <trkpt lat="43.13311" lon="2.99822">
        <ele>4.18</ele>
        <time>2011-09-14T14:50:52Z</time>
      </trkpt>
      <trkpt lat="43.13263" lon="2.99809">
        <ele>5.128</ele>
        <time>2011-09-14T14:50:57Z</time>
      </trkpt>
      <trkpt lat="43.13248" lon="2.99831">
        <ele>6.888</ele>
        <time>2011-09-14T14:51:02Z</time>
      </trkpt>
      <trkpt lat="43.13251" lon="2.99833">
        <ele>7.34</ele>
        <time>2011-09-14T14:51:04Z</time>
      </trkpt>
      <trkpt lat="43.13283" lon="2.99861">
        <ele>7.154</ele>
        <time>2011-09-14T14:51:14Z</time>
      </trkpt>
      <trkpt lat="43.13374" lon="2.9991">
        <ele>7.794</ele>
        <time>2011-09-14T14:51:27Z</time>
      </trkpt>
      <trkpt lat="43.13381" lon="2.99914">
        <ele>8.008</ele>
        <time>2011-09-14T14:51:28Z</time>
      </trkpt>
      <trkpt lat="43.13425" lon="2.99945">
        <ele>8.069</ele>
        <time>2011-09-14T14:51:34Z</time>
      </trkpt>
      <trkpt lat="43.13473" lon="2.99971">
        <ele>8.802</ele>
        <time>2011-09-14T14:51:40Z</time>
      </trkpt>
      <trkpt lat="43.13585" lon="3.00026">
        <ele>10.087</ele>
        <time>2011-09-14T14:51:53Z</time>
      </trkpt>
      <trkpt lat="43.13703" lon="3.0008">
        <ele>11.481</ele>
        <time>2011-09-14T14:52:06Z</time>
      </trkpt>
      <trkpt lat="43.13769" lon="3.00107">
        <ele>10.672</ele>
        <time>2011-09-14T14:52:14Z</time>
      </trkpt>
      <trkpt lat="43.13918" lon="3.00135">
        <ele>9.956</ele>
        <time>2011-09-14T14:52:31Z</time>
      </trkpt>
      <trkpt lat="43.14075" lon="3.00146">
        <ele>9.003</ele>
        <time>2011-09-14T14:52:48Z</time>
      </trkpt>
      <trkpt lat="43.141" lon="3.00144">
        <ele>8.483</ele>
        <time>2011-09-14T14:52:51Z</time>
      </trkpt>
      <trkpt lat="43.14123" lon="3.00148">
        <ele>8.57</ele>
        <time>2011-09-14T14:52:54Z</time>
      </trkpt>
      <trkpt lat="43.14144" lon="3.00158">
        <ele>8.165</ele>
        <time>2011-09-14T14:52:57Z</time>
      </trkpt>
      <trkpt lat="43.14224" lon="3.00191">
        <ele>8.511</ele>
        <time>2011-09-14T14:53:08Z</time>
      </trkpt>
      <trkpt lat="43.14244" lon="3.00186">
        <ele>8.125</ele>
        <time>2011-09-14T14:53:15Z</time>
      </trkpt>
      <trkpt lat="43.1424" lon="3.00185">
        <ele>8.183</ele>
        <time>2011-09-14T14:53:20Z</time>
      </trkpt>
      <trkpt lat="43.14238" lon="3.00184">
        <ele>7.979</ele>
        <time>2011-09-14T14:53:22Z</time>
      </trkpt>
      <trkpt lat="43.14208" lon="3.00172">
        <ele>6.731</ele>
        <time>2011-09-14T14:53:34Z</time>
      </trkpt>
      <trkpt lat="43.14166" lon="3.00163">
        <ele>6.061</ele>
        <time>2011-09-14T14:53:50Z</time>
      </trkpt>
      <trkpt lat="43.14111" lon="3.00164">
        <ele>7.996</ele>
        <time>2011-09-14T14:54:02Z</time>
      </trkpt>
      <trkpt lat="43.14097" lon="3.00165">
        <ele>8.47</ele>
        <time>2011-09-14T14:54:04Z</time>
      </trkpt>
      <trkpt lat="43.13988" lon="3.00142">
        <ele>9.439</ele>
        <time>2011-09-14T14:54:16Z</time>
      </trkpt>
      <trkpt lat="43.13873" lon="3.00087">
        <ele>7.243</ele>
        <time>2011-09-14T14:54:28Z</time>
      </trkpt>
      <trkpt lat="43.13769" lon="3.00008">
        <ele>6.77</ele>
        <time>2011-09-14T14:54:40Z</time>
      </trkpt>
      <trkpt lat="43.13744" lon="2.9999">
        <ele>6.937</ele>
        <time>2011-09-14T14:54:43Z</time>
      </trkpt>
      <trkpt lat="43.13701" lon="2.9997">
        <ele>6.993</ele>
        <time>2011-09-14T14:54:48Z</time>
      </trkpt>
      <trkpt lat="43.1355" lon="2.99877">
        <ele>8.394</ele>
        <time>2011-09-14T14:55:05Z</time>
      </trkpt>
      <trkpt lat="43.13505" lon="2.99846">
        <ele>8.288</ele>
        <time>2011-09-14T14:55:11Z</time>
      </trkpt>
      <trkpt lat="43.13422" lon="2.99828">
        <ele>9.554</ele>
        <time>2011-09-14T14:55:23Z</time>
      </trkpt>
      <trkpt lat="43.13334" lon="2.99786">
        <ele>8.114</ele>
        <time>2011-09-14T14:55:34Z</time>
      </trkpt>
      <trkpt lat="43.13289" lon="2.99752">
        <ele>8.534</ele>
        <time>2011-09-14T14:55:40Z</time>
      </trkpt>
      <trkpt lat="43.13243" lon="2.99721">
        <ele>8.23</ele>
        <time>2011-09-14T14:55:46Z</time>
      </trkpt>
      <trkpt lat="43.13136" lon="2.99631">
        <ele>3.447</ele>
        <time>2011-09-14T14:56:01Z</time>
      </trkpt>
      <trkpt lat="43.13123" lon="2.99622">
        <ele>3.752</ele>
        <time>2011-09-14T14:56:03Z</time>
      </trkpt>
      <trkpt lat="43.13112" lon="2.99603">
        <ele>3.453</ele>
        <time>2011-09-14T14:56:10Z</time>
      </trkpt>
      <trkpt lat="43.13113" lon="2.99602">
        <ele>3.999</ele>
        <time>2011-09-14T14:56:18Z</time>
      </trkpt>
      <trkpt lat="43.13148" lon="2.99624">
        <ele>1.051</ele>
        <time>2011-09-14T14:56:30Z</time>
      </trkpt>
      <trkpt lat="43.13185" lon="2.99658">
        <ele>-2.378</ele>
        <time>2011-09-14T14:56:49Z</time>
      </trkpt>
      <trkpt lat="43.13218" lon="2.99682">
        <ele>-2.088</ele>
        <time>2011-09-14T14:57:07Z</time>
      </trkpt>
      <trkpt lat="43.13251" lon="2.99698">
        <ele>-3.126</ele>
        <time>2011-09-14T14:57:28Z</time>
      </trkpt>
      <trkpt lat="43.13276" lon="2.99714">
        <ele>-2.224</ele>
        <time>2011-09-14T14:57:45Z</time>
      </trkpt>
      <trkpt lat="43.13301" lon="2.99741">
        <ele>-2.439</ele>
        <time>2011-09-14T14:57:58Z</time>
      </trkpt>
      <trkpt lat="43.13321" lon="2.99771">
        <ele>-2.164</ele>
        <time>2011-09-14T14:58:07Z</time>
      </trkpt>
      <trkpt lat="43.13349" lon="2.99814">
        <ele>-1.711</ele>
        <time>2011-09-14T14:58:15Z</time>
      </trkpt>
      <trkpt lat="43.13426" lon="2.99877">
        <ele>-2.072</ele>
        <time>2011-09-14T14:58:27Z</time>
      </trkpt>
      <trkpt lat="43.13473" lon="2.99905">
        <ele>-2.12</ele>
        <time>2011-09-14T14:58:34Z</time>
      </trkpt>
      <trkpt lat="43.13501" lon="2.9992">
        <ele>-2.056</ele>
        <time>2011-09-14T14:58:38Z</time>
      </trkpt>
      <trkpt lat="43.13522" lon="2.99935">
        <ele>-2.567</ele>
        <time>2011-09-14T14:58:41Z</time>
      </trkpt>
      <trkpt lat="43.13644" lon="2.99995">
        <ele>-2.335</ele>
        <time>2011-09-14T14:58:57Z</time>
      </trkpt>
      <trkpt lat="43.13699" lon="3.00037">
        <ele>-2.427</ele>
        <time>2011-09-14T14:59:05Z</time>
      </trkpt>
      <trkpt lat="43.13722" lon="3.0005">
        <ele>-2.738</ele>
        <time>2011-09-14T14:59:08Z</time>
      </trkpt>
      <trkpt lat="43.13828" lon="3.00099">
        <ele>-3.135</ele>
        <time>2011-09-14T14:59:22Z</time>
      </trkpt>
      <trkpt lat="43.13888" lon="3.0013">
        <ele>-2.849</ele>
        <time>2011-09-14T14:59:31Z</time>
      </trkpt>
      <trkpt lat="43.13913" lon="3.00132">
        <ele>-3.029</ele>
        <time>2011-09-14T14:59:38Z</time>
      </trkpt>
      <trkpt lat="43.13916" lon="3.00134">
        <ele>-2.982</ele>
        <time>2011-09-14T14:59:40Z</time>
      </trkpt>
      <trkpt lat="43.13919" lon="3.00137">
        <ele>-2.107</ele>
        <time>2011-09-14T14:59:52Z</time>
      </trkpt>
      <trkpt lat="43.13893" lon="3.0011">
        <ele>-2.042</ele>
        <time>2011-09-14T15:00:05Z</time>
      </trkpt>
      <trkpt lat="43.13848" lon="3.00075">
        <ele>-2.104</ele>
        <time>2011-09-14T15:00:21Z</time>
      </trkpt>
      <trkpt lat="43.13802" lon="3.00046">
        <ele>-2.506</ele>
        <time>2011-09-14T15:00:38Z</time>
      </trkpt>
      <trkpt lat="43.13758" lon="3.00024">
        <ele>-3.092</ele>
        <time>2011-09-14T15:00:46Z</time>
      </trkpt>
      <trkpt lat="43.13693" lon="3.00006">
        <ele>-2.129</ele>
        <time>2011-09-14T15:00:58Z</time>
      </trkpt>
      <trkpt lat="43.13673" lon="2.99989">
        <ele>-0.611</ele>
        <time>2011-09-14T15:01:07Z</time>
      </trkpt>
      <trkpt lat="43.13623" lon="2.99952">
        <ele>-1.224</ele>
        <time>2011-09-14T15:01:27Z</time>
      </trkpt>
      <trkpt lat="43.13594" lon="2.9993">
        <ele>-1.319</ele>
        <time>2011-09-14T15:01:40Z</time>
      </trkpt>
      <trkpt lat="43.13579" lon="2.99924">
        <ele>-1.762</ele>
        <time>2011-09-14T15:01:44Z</time>
      </trkpt>
      <trkpt lat="43.13505" lon="2.99906">
        <ele>-1.139</ele>
        <time>2011-09-14T15:01:58Z</time>
      </trkpt>
      <trkpt lat="43.13418" lon="2.9985">
        <ele>-1.12</ele>
        <time>2011-09-14T15:02:09Z</time>
      </trkpt>
      <trkpt lat="43.13368" lon="2.99816">
        <ele>-1.43</ele>
        <time>2011-09-14T15:02:16Z</time>
      </trkpt>
      <trkpt lat="43.13352" lon="2.99798">
        <ele>-0.575</ele>
        <time>2011-09-14T15:02:20Z</time>
      </trkpt>
      <trkpt lat="43.13353" lon="2.99793">
        <ele>-1.435</ele>
        <time>2011-09-14T15:02:32Z</time>
      </trkpt>
      <trkpt lat="43.13387" lon="2.99801">
        <ele>-0.362</ele>
        <time>2011-09-14T15:02:48Z</time>
      </trkpt>
      <trkpt lat="43.13438" lon="2.99828">
        <ele>0.027</ele>
        <time>2011-09-14T15:02:59Z</time>
      </trkpt>
      <trkpt lat="43.13546" lon="2.9986">
        <ele>0.23</ele>
        <time>2011-09-14T15:03:12Z</time>
      </trkpt>
      <trkpt lat="43.13584" lon="2.99876">
        <ele>0.377</ele>
        <time>2011-09-14T15:03:17Z</time>
      </trkpt>
      <trkpt lat="43.13656" lon="2.99901">
        <ele>-0.207</ele>
        <time>2011-09-14T15:03:26Z</time>
      </trkpt>
      <trkpt lat="43.1376" lon="2.99945">
        <ele>-0.038</ele>
        <time>2011-09-14T15:03:39Z</time>
      </trkpt>
      <trkpt lat="43.13844" lon="2.99995">
        <ele>-0.311</ele>
        <time>2011-09-14T15:03:51Z</time>
      </trkpt>
      <trkpt lat="43.13937" lon="3.00049">
        <ele>-0.566</ele>
        <time>2011-09-14T15:04:04Z</time>
      </trkpt>
      <trkpt lat="43.14047" lon="3.00118">
        <ele>-0.419</ele>
        <time>2011-09-14T15:04:18Z</time>
      </trkpt>
      <trkpt lat="43.14166" lon="3.00147">
        <ele>-0.621</ele>
        <time>2011-09-14T15:04:31Z</time>
      </trkpt>
      <trkpt lat="43.14218" lon="3.0014">
        <ele>-0.892</ele>
        <time>2011-09-14T15:04:37Z</time>
      </trkpt>
      <trkpt lat="43.14233" lon="3.00129">
        <ele>0.058</ele>
        <time>2011-09-14T15:04:43Z</time>
      </trkpt>
      <trkpt lat="43.14232" lon="3.00128">
        <ele>0.146</ele>
        <time>2011-09-14T15:04:44Z</time>
      </trkpt>
      <trkpt lat="43.14201" lon="3.00111">
        <ele>-1.235</ele>
        <time>2011-09-14T15:04:56Z</time>
      </trkpt>
      <trkpt lat="43.14179" lon="3.00101">
        <ele>-1.835</ele>
        <time>2011-09-14T15:05:00Z</time>
      </trkpt>
      <trkpt lat="43.14115" lon="3.00025">
        <ele>0.18</ele>
        <time>2011-09-14T15:05:09Z</time>
      </trkpt>
      <trkpt lat="43.14101" lon="3.00005">
        <ele>0.846</ele>
        <time>2011-09-14T15:05:11Z</time>
      </trkpt>
      <trkpt lat="43.13997" lon="2.99887">
        <ele>-0.195</ele>
        <time>2011-09-14T15:05:25Z</time>
      </trkpt>
      <trkpt lat="43.13897" lon="2.9978">
        <ele>-2.251</ele>
        <time>2011-09-14T15:05:38Z</time>
      </trkpt>
      <trkpt lat="43.13781" lon="2.99677">
        <ele>-2.196</ele>
        <time>2011-09-14T15:05:52Z</time>
      </trkpt>
      <trkpt lat="43.13705" lon="2.99589">
        <ele>-0.93</ele>
        <time>2011-09-14T15:06:02Z</time>
      </trkpt>
      <trkpt lat="43.13682" lon="2.99568">
        <ele>-1.812</ele>
        <time>2011-09-14T15:06:05Z</time>
      </trkpt>
      <trkpt lat="43.13644" lon="2.99516">
        <ele>-2.322</ele>
        <time>2011-09-14T15:06:11Z</time>
      </trkpt>
      <trkpt lat="43.13617" lon="2.99486">
        <ele>-2.447</ele>
        <time>2011-09-14T15:06:15Z</time>
      </trkpt>
      <trkpt lat="43.13564" lon="2.99399">
        <ele>-2.979</ele>
        <time>2011-09-14T15:06:24Z</time>
      </trkpt>
      <trkpt lat="43.13519" lon="2.99338">
        <ele>-0.463</ele>
        <time>2011-09-14T15:06:31Z</time>
      </trkpt>
      <trkpt lat="43.13508" lon="2.99319">
        <ele>0.289</ele>
        <time>2011-09-14T15:06:33Z</time>
      </trkpt>
      <trkpt lat="43.13507" lon="2.99294">
        <ele>-2.109</ele>
        <time>2011-09-14T15:06:39Z</time>
      </trkpt>
      <trkpt lat="43.1351" lon="2.99297">
        <ele>-2.228</ele>
        <time>2011-09-14T15:06:43Z</time>
      </trkpt>
      <trkpt lat="43.13518" lon="2.99306">
        <ele>-1.428</ele>
        <time>2011-09-14T15:06:47Z</time>
      </trkpt>
      <trkpt lat="43.1353" lon="2.9933">
        <ele>-1.644</ele>
        <time>2011-09-14T15:06:51Z</time>
      </trkpt>
      <trkpt lat="43.13599" lon="2.99419">
        <ele>-0.915</ele>
        <time>2011-09-14T15:07:04Z</time>
      </trkpt>
      <trkpt lat="43.13713" lon="2.99542">
        <ele>-2.631</ele>
        <time>2011-09-14T15:07:19Z</time>
      </trkpt>
      <trkpt lat="43.13811" lon="2.99641">
        <ele>-1.683</ele>
        <time>2011-09-14T15:07:32Z</time>
      </trkpt>
      <trkpt lat="43.13884" lon="2.99719">
        <ele>-1.321</ele>
        <time>2011-09-14T15:07:44Z</time>
      </trkpt>
      <trkpt lat="43.1392" lon="2.99764">
        <ele>-0.396</ele>
        <time>2011-09-14T15:07:55Z</time>
      </trkpt>
      <trkpt lat="43.13963" lon="2.998">
        <ele>0.233</ele>
        <time>2011-09-14T15:08:16Z</time>
      </trkpt>
      <trkpt lat="43.13992" lon="2.99821">
        <ele>0.975</ele>
        <time>2011-09-14T15:08:32Z</time>
      </trkpt>
      <trkpt lat="43.14029" lon="2.9985">
        <ele>0.655</ele>
        <time>2011-09-14T15:08:51Z</time>
      </trkpt>
      <trkpt lat="43.14057" lon="2.99884">
        <ele>0.054</ele>
        <time>2011-09-14T15:09:04Z</time>
      </trkpt>
      <trkpt lat="43.14078" lon="2.9991">
        <ele>0.35</ele>
        <time>2011-09-14T15:09:15Z</time>
      </trkpt>
      <trkpt lat="43.1409" lon="2.99931">
        <ele>-0.065</ele>
        <time>2011-09-14T15:09:19Z</time>
      </trkpt>
      <trkpt lat="43.14114" lon="2.99964">
        <ele>-0.796</ele>
        <time>2011-09-14T15:09:24Z</time>
      </trkpt>
      <trkpt lat="43.14159" lon="3.00004">
        <ele>-0.538</ele>
        <time>2011-09-14T15:09:30Z</time>
      </trkpt>
      <trkpt lat="43.14227" lon="3.00064">
        <ele>-0.479</ele>
        <time>2011-09-14T15:09:39Z</time>
      </trkpt>
      <trkpt lat="43.14254" lon="3.00082">
        <ele>0.216</ele>
        <time>2011-09-14T15:09:43Z</time>
      </trkpt>
      <trkpt lat="43.14268" lon="3.00089">
        <ele>-0.614</ele>
        <time>2011-09-14T15:09:52Z</time>
      </trkpt>
      <trkpt lat="43.14276" lon="3.00089">
        <ele>-0.64</ele>
        <time>2011-09-14T15:10:15Z</time>
      </trkpt>
      <trkpt lat="43.14287" lon="3.00085">
        <ele>0.938</ele>
        <time>2011-09-14T15:10:37Z</time>
      </trkpt>
      <trkpt lat="43.14291" lon="3.00086">
        <ele>1.022</ele>
        <time>2011-09-14T15:10:43Z</time>
      </trkpt>
      <trkpt lat="43.1429" lon="3.00065">
        <ele>-0.999</ele>
        <time>2011-09-14T15:11:02Z</time>
      </trkpt>
      <trkpt lat="43.14292" lon="3.00064">
        <ele>-1.537</ele>
        <time>2011-09-14T15:11:22Z</time>
      </trkpt>
      <trkpt lat="43.14293" lon="3.00064">
        <ele>-1.765</ele>
        <time>2011-09-14T15:11:43Z</time>
      </trkpt>
      <trkpt lat="43.14294" lon="3.00063">
        <ele>-1.1</ele>
        <time>2011-09-14T15:12:21Z</time>
      </trkpt>
      <trkpt lat="43.14294" lon="3.00064">
        <ele>0.078</ele>
        <time>2011-09-14T15:12:54Z</time>
      </trkpt>
    </trkseg>
  </trk>
</gpx>